sensor_id;sensor_type;location;lat;lon;timestamp;P1;durP1;ratioP1;P2;durP2;ratioP2
944;SDS011;459;48.676;9.034;2024-03-02T00:00:11;7.93;;;6.50;;
944;SDS011;459;48.676;9.034;2024-03-02T00:02:42;8.03;;;7.00;;
944;SDS011;459;48.676;9.034;2024-03-02T00:05:07;10.23;;;7.03;;
944;SDS011;459;48.676;9.034;2024-03-02T00:07:34;8.40;;;7.50;;
944;SDS011;459;48.676;9.034;2024-03-02T00:10:00;9.43;;;6.80;;
944;SDS011;459;48.676;9.034;2024-03-02T00:12:25;11.80;;;8.27;;
944;SDS011;459;48.676;9.034;2024-03-02T00:14:50;8.17;;;7.20;;
944;SDS011;459;48.676;9.034;2024-03-02T00:17:17;8.67;;;6.80;;
944;SDS011;459;48.676;9.034;2024-03-02T00:19:46;10.23;;;7.77;;
944;SDS011;459;48.676;9.034;2024-03-02T00:22:11;9.70;;;7.70;;
944;SDS011;459;48.676;9.034;2024-03-02T00:24:36;8.17;;;6.63;;
944;SDS011;459;48.676;9.034;2024-03-02T00:27:02;9.50;;;6.60;;
944;SDS011;459;48.676;9.034;2024-03-02T00:29:28;8.47;;;6.93;;
944;SDS011;459;48.676;9.034;2024-03-02T00:31:54;7.90;;;7.13;;
944;SDS011;459;48.676;9.034;2024-03-02T00:34:20;8.57;;;7.40;;
944;SDS011;459;48.676;9.034;2024-03-02T00:36:45;9.83;;;7.27;;
944;SDS011;459;48.676;9.034;2024-03-02T00:39:11;10.40;;;6.80;;
944;SDS011;459;48.676;9.034;2024-03-02T00:41:38;8.87;;;7.93;;
944;SDS011;459;48.676;9.034;2024-03-02T00:44:24;8.33;;;7.47;;
944;SDS011;459;48.676;9.034;2024-03-02T00:46:50;9.20;;;8.17;;
944;SDS011;459;48.676;9.034;2024-03-02T00:51:45;13.77;;;9.67;;
944;SDS011;459;48.676;9.034;2024-03-02T00:54:13;9.37;;;7.87;;
944;SDS011;459;48.676;9.034;2024-03-02T00:56:39;10.93;;;7.87;;
944;SDS011;459;48.676;9.034;2024-03-02T00:59:06;9.63;;;7.50;;
944;SDS011;459;48.676;9.034;2024-03-02T01:01:31;10.10;;;8.00;;
944;SDS011;459;48.676;9.034;2024-03-02T01:03:56;9.40;;;8.40;;
944;SDS011;459;48.676;9.034;2024-03-02T01:06:21;6.67;;;5.07;;
944;SDS011;459;48.676;9.034;2024-03-02T01:08:47;17.70;;;7.50;;
944;SDS011;459;48.676;9.034;2024-03-02T01:11:15;9.97;;;8.47;;
944;SDS011;459;48.676;9.034;2024-03-02T01:13:41;10.47;;;8.47;;
944;SDS011;459;48.676;9.034;2024-03-02T01:16:06;11.30;;;9.52;;
944;SDS011;459;48.676;9.034;2024-03-02T01:18:31;8.90;;;7.10;;
944;SDS011;459;48.676;9.034;2024-03-02T01:20:56;13.40;;;9.77;;
944;SDS011;459;48.676;9.034;2024-03-02T01:23:22;12.40;;;9.10;;
944;SDS011;459;48.676;9.034;2024-03-02T01:25:48;11.73;;;9.40;;
944;SDS011;459;48.676;9.034;2024-03-02T01:28:13;12.17;;;9.13;;
944;SDS011;459;48.676;9.034;2024-03-02T01:30:39;13.40;;;9.30;;
944;SDS011;459;48.676;9.034;2024-03-02T01:33:04;11.77;;;8.80;;
944;SDS011;459;48.676;9.034;2024-03-02T01:35:30;12.37;;;9.40;;
944;SDS011;459;48.676;9.034;2024-03-02T01:37:55;14.13;;;10.03;;
944;SDS011;459;48.676;9.034;2024-03-02T01:40:21;12.90;;;8.83;;
944;SDS011;459;48.676;9.034;2024-03-02T01:42:46;13.40;;;9.60;;
944;SDS011;459;48.676;9.034;2024-03-02T01:45:11;12.47;;;9.47;;
944;SDS011;459;48.676;9.034;2024-03-02T01:47:36;13.13;;;9.33;;
944;SDS011;459;48.676;9.034;2024-03-02T01:50:01;14.77;;;9.57;;
944;SDS011;459;48.676;9.034;2024-03-02T01:52:27;11.23;;;9.87;;
944;SDS011;459;48.676;9.034;2024-03-02T01:54:52;13.30;;;9.80;;
944;SDS011;459;48.676;9.034;2024-03-02T01:57:17;14.17;;;9.63;;
944;SDS011;459;48.676;9.034;2024-03-02T01:59:42;16.00;;;10.63;;
944;SDS011;459;48.676;9.034;2024-03-02T02:02:08;11.50;;;9.50;;
944;SDS011;459;48.676;9.034;2024-03-02T02:04:33;12.97;;;9.60;;
944;SDS011;459;48.676;9.034;2024-03-02T02:06:59;14.73;;;10.10;;
944;SDS011;459;48.676;9.034;2024-03-02T02:09:24;12.50;;;10.03;;
944;SDS011;459;48.676;9.034;2024-03-02T02:11:50;12.63;;;9.70;;
944;SDS011;459;48.676;9.034;2024-03-02T02:14:15;11.57;;;9.60;;
944;SDS011;459;48.676;9.034;2024-03-02T02:16:40;14.57;;;10.57;;
944;SDS011;459;48.676;9.034;2024-03-02T02:19:05;15.20;;;10.97;;
944;SDS011;459;48.676;9.034;2024-03-02T02:21:30;15.67;;;10.67;;
944;SDS011;459;48.676;9.034;2024-03-02T02:23:56;10.83;;;8.77;;
944;SDS011;459;48.676;9.034;2024-03-02T02:26:21;12.63;;;8.03;;
944;SDS011;459;48.676;9.034;2024-03-02T02:28:46;12.63;;;10.57;;
944;SDS011;459;48.676;9.034;2024-03-02T02:31:12;14.30;;;9.23;;
944;SDS011;459;48.676;9.034;2024-03-02T02:33:39;11.50;;;9.37;;
944;SDS011;459;48.676;9.034;2024-03-02T02:36:04;12.67;;;8.93;;
944;SDS011;459;48.676;9.034;2024-03-02T02:38:29;13.73;;;8.50;;
944;SDS011;459;48.676;9.034;2024-03-02T02:40:55;12.70;;;10.57;;
944;SDS011;459;48.676;9.034;2024-03-02T02:43:20;14.33;;;9.90;;
944;SDS011;459;48.676;9.034;2024-03-02T02:45:45;14.70;;;10.13;;
944;SDS011;459;48.676;9.034;2024-03-02T02:48:10;13.70;;;9.87;;
944;SDS011;459;48.676;9.034;2024-03-02T02:50:35;14.95;;;9.52;;
944;SDS011;459;48.676;9.034;2024-03-02T02:53:01;14.53;;;9.63;;
944;SDS011;459;48.676;9.034;2024-03-02T02:55:26;11.97;;;9.00;;
944;SDS011;459;48.676;9.034;2024-03-02T02:57:51;12.53;;;8.97;;
944;SDS011;459;48.676;9.034;2024-03-02T03:00:17;13.43;;;9.70;;
944;SDS011;459;48.676;9.034;2024-03-02T03:02:44;12.97;;;10.27;;
944;SDS011;459;48.676;9.034;2024-03-02T03:05:10;14.23;;;10.00;;
944;SDS011;459;48.676;9.034;2024-03-02T03:07:36;14.17;;;10.30;;
944;SDS011;459;48.676;9.034;2024-03-02T03:10:02;13.83;;;9.70;;
944;SDS011;459;48.676;9.034;2024-03-02T03:12:28;14.30;;;9.13;;
944;SDS011;459;48.676;9.034;2024-03-02T03:14:53;12.90;;;9.70;;
944;SDS011;459;48.676;9.034;2024-03-02T03:17:18;13.40;;;9.10;;
944;SDS011;459;48.676;9.034;2024-03-02T03:19:43;13.93;;;9.20;;
944;SDS011;459;48.676;9.034;2024-03-02T03:22:09;11.47;;;9.57;;
944;SDS011;459;48.676;9.034;2024-03-02T03:24:34;10.60;;;8.53;;
944;SDS011;459;48.676;9.034;2024-03-02T03:26:59;10.43;;;8.87;;
944;SDS011;459;48.676;9.034;2024-03-02T03:29:24;9.30;;;7.57;;
944;SDS011;459;48.676;9.034;2024-03-02T03:31:49;11.40;;;8.80;;
944;SDS011;459;48.676;9.034;2024-03-02T03:34:15;14.07;;;9.90;;
944;SDS011;459;48.676;9.034;2024-03-02T03:36:41;11.53;;;8.70;;
944;SDS011;459;48.676;9.034;2024-03-02T03:39:06;9.60;;;7.77;;
944;SDS011;459;48.676;9.034;2024-03-02T03:41:32;11.97;;;8.50;;
944;SDS011;459;48.676;9.034;2024-03-02T03:43:57;11.30;;;8.23;;
944;SDS011;459;48.676;9.034;2024-03-02T03:46:22;11.60;;;8.57;;
944;SDS011;459;48.676;9.034;2024-03-02T03:48:47;10.80;;;7.40;;
944;SDS011;459;48.676;9.034;2024-03-02T03:51:12;9.77;;;7.10;;
944;SDS011;459;48.676;9.034;2024-03-02T03:53:37;9.63;;;8.10;;
944;SDS011;459;48.676;9.034;2024-03-02T03:56:03;10.90;;;8.07;;
944;SDS011;459;48.676;9.034;2024-03-02T03:58:28;8.60;;;6.83;;
944;SDS011;459;48.676;9.034;2024-03-02T04:00:53;11.85;;;7.65;;
944;SDS011;459;48.676;9.034;2024-03-02T04:03:18;12.00;;;8.30;;
944;SDS011;459;48.676;9.034;2024-03-02T04:05:43;13.80;;;8.27;;
944;SDS011;459;48.676;9.034;2024-03-02T04:08:08;11.97;;;7.07;;
944;SDS011;459;48.676;9.034;2024-03-02T04:10:34;13.83;;;10.00;;
944;SDS011;459;48.676;9.034;2024-03-02T04:12:59;13.30;;;9.50;;
944;SDS011;459;48.676;9.034;2024-03-02T04:15:24;13.63;;;9.03;;
944;SDS011;459;48.676;9.034;2024-03-02T04:17:49;12.60;;;9.13;;
944;SDS011;459;48.676;9.034;2024-03-02T04:20:15;12.80;;;8.83;;
944;SDS011;459;48.676;9.034;2024-03-02T04:22:40;13.70;;;9.43;;
944;SDS011;459;48.676;9.034;2024-03-02T04:25:05;15.07;;;10.77;;
944;SDS011;459;48.676;9.034;2024-03-02T04:27:32;14.10;;;9.97;;
944;SDS011;459;48.676;9.034;2024-03-02T04:29:58;11.40;;;9.27;;
944;SDS011;459;48.676;9.034;2024-03-02T04:32:25;10.00;;;8.97;;
944;SDS011;459;48.676;9.034;2024-03-02T04:34:50;9.60;;;8.43;;
944;SDS011;459;48.676;9.034;2024-03-02T04:37:15;11.00;;;8.70;;
944;SDS011;459;48.676;9.034;2024-03-02T04:39:40;10.00;;;6.80;;
944;SDS011;459;48.676;9.034;2024-03-02T04:42:05;10.10;;;6.90;;
944;SDS011;459;48.676;9.034;2024-03-02T04:44:30;11.87;;;7.17;;
944;SDS011;459;48.676;9.034;2024-03-02T04:46:56;10.70;;;7.97;;
944;SDS011;459;48.676;9.034;2024-03-02T04:49:21;7.73;;;6.60;;
944;SDS011;459;48.676;9.034;2024-03-02T04:51:46;10.20;;;7.57;;
944;SDS011;459;48.676;9.034;2024-03-02T04:54:11;8.03;;;6.17;;
944;SDS011;459;48.676;9.034;2024-03-02T04:56:39;9.30;;;7.60;;
944;SDS011;459;48.676;9.034;2024-03-02T04:59:09;10.77;;;7.50;;
944;SDS011;459;48.676;9.034;2024-03-02T05:01:34;8.97;;;7.83;;
944;SDS011;459;48.676;9.034;2024-03-02T05:03:59;9.50;;;7.43;;
944;SDS011;459;48.676;9.034;2024-03-02T05:06:24;12.47;;;8.13;;
944;SDS011;459;48.676;9.034;2024-03-02T05:08:49;8.00;;;6.93;;
944;SDS011;459;48.676;9.034;2024-03-02T05:11:15;10.60;;;8.57;;
944;SDS011;459;48.676;9.034;2024-03-02T05:13:58;11.20;;;7.80;;
944;SDS011;459;48.676;9.034;2024-03-02T05:16:24;11.73;;;8.80;;
944;SDS011;459;48.676;9.034;2024-03-02T05:18:49;8.90;;;7.23;;
944;SDS011;459;48.676;9.034;2024-03-02T05:21:14;10.18;;;7.05;;
944;SDS011;459;48.676;9.034;2024-03-02T05:23:39;10.33;;;8.00;;
944;SDS011;459;48.676;9.034;2024-03-02T05:26:04;9.63;;;6.73;;
944;SDS011;459;48.676;9.034;2024-03-02T05:28:29;11.03;;;8.23;;
944;SDS011;459;48.676;9.034;2024-03-02T05:30:55;11.53;;;7.83;;
944;SDS011;459;48.676;9.034;2024-03-02T05:33:20;9.40;;;7.77;;
944;SDS011;459;48.676;9.034;2024-03-02T05:35:47;10.10;;;8.70;;
944;SDS011;459;48.676;9.034;2024-03-02T05:38:12;11.93;;;8.47;;
944;SDS011;459;48.676;9.034;2024-03-02T05:40:37;10.70;;;8.57;;
944;SDS011;459;48.676;9.034;2024-03-02T05:43:03;12.07;;;9.30;;
944;SDS011;459;48.676;9.034;2024-03-02T05:45:28;10.47;;;8.47;;
944;SDS011;459;48.676;9.034;2024-03-02T05:47:53;10.27;;;7.83;;
944;SDS011;459;48.676;9.034;2024-03-02T05:50:18;9.35;;;8.13;;
944;SDS011;459;48.676;9.034;2024-03-02T05:52:45;12.23;;;9.30;;
944;SDS011;459;48.676;9.034;2024-03-02T05:55:10;8.13;;;7.30;;
944;SDS011;459;48.676;9.034;2024-03-02T05:57:35;8.57;;;7.03;;
944;SDS011;459;48.676;9.034;2024-03-02T06:00:09;9.43;;;7.00;;
944;SDS011;459;48.676;9.034;2024-03-02T06:02:35;15.60;;;11.87;;
944;SDS011;459;48.676;9.034;2024-03-02T06:05:03;8.50;;;7.00;;
944;SDS011;459;48.676;9.034;2024-03-02T06:07:29;11.33;;;7.67;;
944;SDS011;459;48.676;9.034;2024-03-02T06:09:54;8.70;;;7.30;;
944;SDS011;459;48.676;9.034;2024-03-02T06:12:19;12.13;;;8.23;;
944;SDS011;459;48.676;9.034;2024-03-02T06:14:45;10.27;;;6.70;;
944;SDS011;459;48.676;9.034;2024-03-02T06:17:10;8.77;;;6.80;;
944;SDS011;459;48.676;9.034;2024-03-02T06:19:35;11.83;;;8.53;;
944;SDS011;459;48.676;9.034;2024-03-02T06:22:00;11.32;;;7.82;;
944;SDS011;459;48.676;9.034;2024-03-02T06:24:25;9.20;;;7.23;;
944;SDS011;459;48.676;9.034;2024-03-02T06:26:51;12.20;;;8.10;;
944;SDS011;459;48.676;9.034;2024-03-02T06:29:17;10.17;;;6.53;;
944;SDS011;459;48.676;9.034;2024-03-02T06:31:42;10.23;;;7.23;;
944;SDS011;459;48.676;9.034;2024-03-02T06:34:07;12.18;;;8.80;;
944;SDS011;459;48.676;9.034;2024-03-02T06:36:33;8.43;;;6.33;;
944;SDS011;459;48.676;9.034;2024-03-02T06:38:58;11.33;;;8.27;;
944;SDS011;459;48.676;9.034;2024-03-02T06:41:23;11.60;;;8.97;;
944;SDS011;459;48.676;9.034;2024-03-02T06:43:48;11.43;;;7.63;;
944;SDS011;459;48.676;9.034;2024-03-02T06:46:14;9.77;;;7.93;;
944;SDS011;459;48.676;9.034;2024-03-02T06:48:40;11.03;;;8.23;;
944;SDS011;459;48.676;9.034;2024-03-02T06:51:05;13.33;;;9.27;;
944;SDS011;459;48.676;9.034;2024-03-02T06:53:30;10.83;;;7.67;;
944;SDS011;459;48.676;9.034;2024-03-02T06:55:56;12.00;;;9.20;;
944;SDS011;459;48.676;9.034;2024-03-02T06:58:21;9.80;;;8.37;;
944;SDS011;459;48.676;9.034;2024-03-02T07:00:46;13.27;;;8.20;;
944;SDS011;459;48.676;9.034;2024-03-02T07:03:13;14.83;;;10.20;;
944;SDS011;459;48.676;9.034;2024-03-02T07:05:38;13.30;;;9.30;;
944;SDS011;459;48.676;9.034;2024-03-02T07:08:04;13.10;;;10.13;;
944;SDS011;459;48.676;9.034;2024-03-02T07:10:30;13.07;;;8.80;;
944;SDS011;459;48.676;9.034;2024-03-02T07:12:55;10.10;;;7.80;;
944;SDS011;459;48.676;9.034;2024-03-02T07:15:20;12.47;;;8.27;;
944;SDS011;459;48.676;9.034;2024-03-02T07:17:51;7.53;;;6.23;;
944;SDS011;459;48.676;9.034;2024-03-02T07:20:16;9.07;;;8.00;;
944;SDS011;459;48.676;9.034;2024-03-02T07:22:42;11.73;;;8.77;;
944;SDS011;459;48.676;9.034;2024-03-02T07:25:08;11.40;;;8.53;;
944;SDS011;459;48.676;9.034;2024-03-02T07:27:33;10.17;;;8.07;;
944;SDS011;459;48.676;9.034;2024-03-02T07:30:00;9.80;;;7.73;;
944;SDS011;459;48.676;9.034;2024-03-02T07:32:25;8.65;;;7.30;;
944;SDS011;459;48.676;9.034;2024-03-02T07:34:50;9.65;;;8.05;;
944;SDS011;459;48.676;9.034;2024-03-02T07:37:16;10.10;;;7.37;;
944;SDS011;459;48.676;9.034;2024-03-02T07:39:41;10.97;;;6.90;;
944;SDS011;459;48.676;9.034;2024-03-02T07:42:06;10.80;;;9.03;;
944;SDS011;459;48.676;9.034;2024-03-02T07:44:31;12.60;;;8.17;;
944;SDS011;459;48.676;9.034;2024-03-02T07:46:56;11.50;;;7.30;;
944;SDS011;459;48.676;9.034;2024-03-02T07:49:21;9.70;;;7.10;;
944;SDS011;459;48.676;9.034;2024-03-02T07:51:47;10.37;;;8.13;;
944;SDS011;459;48.676;9.034;2024-03-02T07:54:12;11.40;;;7.50;;
944;SDS011;459;48.676;9.034;2024-03-02T07:56:37;10.47;;;8.40;;
944;SDS011;459;48.676;9.034;2024-03-02T07:59:02;11.27;;;8.43;;
944;SDS011;459;48.676;9.034;2024-03-02T08:01:31;10.23;;;7.60;;
944;SDS011;459;48.676;9.034;2024-03-02T08:03:57;9.63;;;7.80;;
944;SDS011;459;48.676;9.034;2024-03-02T08:06:23;11.57;;;7.90;;
944;SDS011;459;48.676;9.034;2024-03-02T08:08:51;9.93;;;8.17;;
944;SDS011;459;48.676;9.034;2024-03-02T08:11:16;10.83;;;8.67;;
944;SDS011;459;48.676;9.034;2024-03-02T08:13:42;15.00;;;10.97;;
944;SDS011;459;48.676;9.034;2024-03-02T08:16:07;11.88;;;9.43;;
944;SDS011;459;48.676;9.034;2024-03-02T08:18:34;10.40;;;9.07;;
944;SDS011;459;48.676;9.034;2024-03-02T08:20:59;7.90;;;6.67;;
944;SDS011;459;48.676;9.034;2024-03-02T08:23:25;10.37;;;6.87;;
944;SDS011;459;48.676;9.034;2024-03-02T08:25:50;8.93;;;6.83;;
944;SDS011;459;48.676;9.034;2024-03-02T08:28:15;7.80;;;7.00;;
944;SDS011;459;48.676;9.034;2024-03-02T08:30:40;7.27;;;5.57;;
944;SDS011;459;48.676;9.034;2024-03-02T08:33:05;8.90;;;6.17;;
944;SDS011;459;48.676;9.034;2024-03-02T08:35:30;7.60;;;5.77;;
944;SDS011;459;48.676;9.034;2024-03-02T08:38:00;7.37;;;5.60;;
944;SDS011;459;48.676;9.034;2024-03-02T08:40:26;10.67;;;6.60;;
944;SDS011;459;48.676;9.034;2024-03-02T08:42:51;9.53;;;6.07;;
944;SDS011;459;48.676;9.034;2024-03-02T08:45:17;5.53;;;4.87;;
944;SDS011;459;48.676;9.034;2024-03-02T08:47:42;5.67;;;5.07;;
944;SDS011;459;48.676;9.034;2024-03-02T08:50:07;5.70;;;5.03;;
944;SDS011;459;48.676;9.034;2024-03-02T08:52:33;6.90;;;5.30;;
944;SDS011;459;48.676;9.034;2024-03-02T08:54:58;6.37;;;4.47;;
944;SDS011;459;48.676;9.034;2024-03-02T08:57:23;5.20;;;4.70;;
944;SDS011;459;48.676;9.034;2024-03-02T08:59:48;7.47;;;5.67;;
944;SDS011;459;48.676;9.034;2024-03-02T09:02:14;5.87;;;5.33;;
944;SDS011;459;48.676;9.034;2024-03-02T09:04:39;9.67;;;5.60;;
944;SDS011;459;48.676;9.034;2024-03-02T09:07:04;6.63;;;5.67;;
944;SDS011;459;48.676;9.034;2024-03-02T09:09:30;6.30;;;5.07;;
944;SDS011;459;48.676;9.034;2024-03-02T09:11:56;7.00;;;5.90;;
944;SDS011;459;48.676;9.034;2024-03-02T09:14:22;10.20;;;5.87;;
944;SDS011;459;48.676;9.034;2024-03-02T09:16:48;6.60;;;5.67;;
944;SDS011;459;48.676;9.034;2024-03-02T09:19:13;7.27;;;6.17;;
944;SDS011;459;48.676;9.034;2024-03-02T09:21:38;7.83;;;5.70;;
944;SDS011;459;48.676;9.034;2024-03-02T09:24:04;7.10;;;5.57;;
944;SDS011;459;48.676;9.034;2024-03-02T09:26:29;4.97;;;4.50;;
944;SDS011;459;48.676;9.034;2024-03-02T09:28:54;5.20;;;4.40;;
944;SDS011;459;48.676;9.034;2024-03-02T09:31:19;5.60;;;5.07;;
944;SDS011;459;48.676;9.034;2024-03-02T09:33:44;6.00;;;4.63;;
944;SDS011;459;48.676;9.034;2024-03-02T09:36:16;5.77;;;4.10;;
944;SDS011;459;48.676;9.034;2024-03-02T09:38:41;5.03;;;4.13;;
944;SDS011;459;48.676;9.034;2024-03-02T09:41:06;5.10;;;3.95;;
944;SDS011;459;48.676;9.034;2024-03-02T09:43:32;5.83;;;4.53;;
944;SDS011;459;48.676;9.034;2024-03-02T09:45:57;4.10;;;3.03;;
944;SDS011;459;48.676;9.034;2024-03-02T09:48:22;4.80;;;3.10;;
944;SDS011;459;48.676;9.034;2024-03-02T09:50:47;4.17;;;3.77;;
944;SDS011;459;48.676;9.034;2024-03-02T09:53:13;5.43;;;4.20;;
944;SDS011;459;48.676;9.034;2024-03-02T09:55:39;4.90;;;4.37;;
944;SDS011;459;48.676;9.034;2024-03-02T09:58:08;4.13;;;3.67;;
944;SDS011;459;48.676;9.034;2024-03-02T10:00:34;3.73;;;3.27;;
944;SDS011;459;48.676;9.034;2024-03-02T10:02:59;4.10;;;2.80;;
944;SDS011;459;48.676;9.034;2024-03-02T10:05:25;4.20;;;2.70;;
944;SDS011;459;48.676;9.034;2024-03-02T10:07:58;4.30;;;3.70;;
944;SDS011;459;48.676;9.034;2024-03-02T10:10:23;2.90;;;2.60;;
944;SDS011;459;48.676;9.034;2024-03-02T10:12:48;3.07;;;2.80;;
944;SDS011;459;48.676;9.034;2024-03-02T10:15:28;3.63;;;2.63;;
944;SDS011;459;48.676;9.034;2024-03-02T10:17:53;3.17;;;2.87;;
944;SDS011;459;48.676;9.034;2024-03-02T10:20:22;3.00;;;2.80;;
944;SDS011;459;48.676;9.034;2024-03-02T10:22:48;2.27;;;1.80;;
944;SDS011;459;48.676;9.034;2024-03-02T10:25:27;1.80;;;1.63;;
944;SDS011;459;48.676;9.034;2024-03-02T10:27:53;2.10;;;1.90;;
944;SDS011;459;48.676;9.034;2024-03-02T10:30:18;1.97;;;1.57;;
944;SDS011;459;48.676;9.034;2024-03-02T10:32:43;2.57;;;2.20;;
944;SDS011;459;48.676;9.034;2024-03-02T10:35:09;1.40;;;1.30;;
944;SDS011;459;48.676;9.034;2024-03-02T10:37:34;2.10;;;1.90;;
944;SDS011;459;48.676;9.034;2024-03-02T10:40:04;2.73;;;1.90;;
944;SDS011;459;48.676;9.034;2024-03-02T10:42:29;1.93;;;1.73;;
944;SDS011;459;48.676;9.034;2024-03-02T10:44:54;3.43;;;1.77;;
944;SDS011;459;48.676;9.034;2024-03-02T10:47:20;2.23;;;1.53;;
944;SDS011;459;48.676;9.034;2024-03-02T10:49:47;1.20;;;1.10;;
944;SDS011;459;48.676;9.034;2024-03-02T10:52:14;1.70;;;1.27;;
944;SDS011;459;48.676;9.034;2024-03-02T10:54:40;2.67;;;1.13;;
944;SDS011;459;48.676;9.034;2024-03-02T10:57:05;1.50;;;1.27;;
944;SDS011;459;48.676;9.034;2024-03-02T10:59:35;1.30;;;1.10;;
944;SDS011;459;48.676;9.034;2024-03-02T11:02:03;1.80;;;1.40;;
944;SDS011;459;48.676;9.034;2024-03-02T11:04:29;2.20;;;1.40;;
944;SDS011;459;48.676;9.034;2024-03-02T11:07:04;0.90;;;0.80;;
944;SDS011;459;48.676;9.034;2024-03-02T11:09:33;1.70;;;1.57;;
944;SDS011;459;48.676;9.034;2024-03-02T11:14:43;1.10;;;0.80;;
944;SDS011;459;48.676;9.034;2024-03-02T11:17:08;1.73;;;0.63;;
944;SDS011;459;48.676;9.034;2024-03-02T11:19:34;1.00;;;0.90;;
944;SDS011;459;48.676;9.034;2024-03-02T11:21:59;0.87;;;0.80;;
944;SDS011;459;48.676;9.034;2024-03-02T11:26:58;0.70;;;0.70;;
944;SDS011;459;48.676;9.034;2024-03-02T11:32:00;1.00;;;0.70;;
944;SDS011;459;48.676;9.034;2024-03-02T11:34:44;1.53;;;0.93;;
944;SDS011;459;48.676;9.034;2024-03-02T11:37:10;0.90;;;0.70;;
944;SDS011;459;48.676;9.034;2024-03-02T11:39:35;1.00;;;0.80;;
944;SDS011;459;48.676;9.034;2024-03-02T11:42:00;1.20;;;1.00;;
944;SDS011;459;48.676;9.034;2024-03-02T11:44:27;1.13;;;0.70;;
944;SDS011;459;48.676;9.034;2024-03-02T11:46:59;1.17;;;0.80;;
944;SDS011;459;48.676;9.034;2024-03-02T11:52:02;7.53;;;1.57;;
944;SDS011;459;48.676;9.034;2024-03-02T11:54:28;1.30;;;1.10;;
944;SDS011;459;48.676;9.034;2024-03-02T11:56:55;4.00;;;0.90;;
944;SDS011;459;48.676;9.034;2024-03-02T11:59:20;0.80;;;0.80;;
944;SDS011;459;48.676;9.034;2024-03-02T12:01:45;1.30;;;0.80;;
944;SDS011;459;48.676;9.034;2024-03-02T12:04:12;1.20;;;0.80;;
944;SDS011;459;48.676;9.034;2024-03-02T12:06:38;2.10;;;1.00;;
944;SDS011;459;48.676;9.034;2024-03-02T12:09:03;1.40;;;1.00;;
944;SDS011;459;48.676;9.034;2024-03-02T12:11:28;1.43;;;1.20;;
944;SDS011;459;48.676;9.034;2024-03-02T12:13:53;0.85;;;0.80;;
944;SDS011;459;48.676;9.034;2024-03-02T12:16:24;1.00;;;0.90;;
944;SDS011;459;48.676;9.034;2024-03-02T12:18:49;1.27;;;1.10;;
944;SDS011;459;48.676;9.034;2024-03-02T12:21:14;1.30;;;1.10;;
944;SDS011;459;48.676;9.034;2024-03-02T12:23:40;1.00;;;0.80;;
944;SDS011;459;48.676;9.034;2024-03-02T12:26:05;1.00;;;0.80;;
944;SDS011;459;48.676;9.034;2024-03-02T12:28:31;1.37;;;0.93;;
944;SDS011;459;48.676;9.034;2024-03-02T12:30:57;1.80;;;1.60;;
944;SDS011;459;48.676;9.034;2024-03-02T12:33:22;1.10;;;0.70;;
944;SDS011;459;48.676;9.034;2024-03-02T12:35:48;0.93;;;0.83;;
944;SDS011;459;48.676;9.034;2024-03-02T12:38:14;1.13;;;1.00;;
944;SDS011;459;48.676;9.034;2024-03-02T12:40:39;1.43;;;1.33;;
944;SDS011;459;48.676;9.034;2024-03-02T12:43:05;1.05;;;0.90;;
944;SDS011;459;48.676;9.034;2024-03-02T12:45:30;1.13;;;1.00;;
944;SDS011;459;48.676;9.034;2024-03-02T12:47:55;1.53;;;1.03;;
944;SDS011;459;48.676;9.034;2024-03-02T12:50:20;1.40;;;1.03;;
944;SDS011;459;48.676;9.034;2024-03-02T12:52:55;1.37;;;1.00;;
944;SDS011;459;48.676;9.034;2024-03-02T12:55:21;0.93;;;0.80;;
944;SDS011;459;48.676;9.034;2024-03-02T12:57:47;1.40;;;1.20;;
944;SDS011;459;48.676;9.034;2024-03-02T13:00:12;1.20;;;0.90;;
944;SDS011;459;48.676;9.034;2024-03-02T13:02:41;1.40;;;0.77;;
944;SDS011;459;48.676;9.034;2024-03-02T13:05:07;0.93;;;0.70;;
944;SDS011;459;48.676;9.034;2024-03-02T13:07:36;0.90;;;0.60;;
944;SDS011;459;48.676;9.034;2024-03-02T13:10:01;0.93;;;0.80;;
944;SDS011;459;48.676;9.034;2024-03-02T13:12:27;1.43;;;0.70;;
944;SDS011;459;48.676;9.034;2024-03-02T13:14:53;0.80;;;0.70;;
944;SDS011;459;48.676;9.034;2024-03-02T13:17:18;1.00;;;0.60;;
944;SDS011;459;48.676;9.034;2024-03-02T13:19:56;0.73;;;0.63;;
944;SDS011;459;48.676;9.034;2024-03-02T13:22:22;1.50;;;1.00;;
944;SDS011;459;48.676;9.034;2024-03-02T13:24:48;1.10;;;0.83;;
944;SDS011;459;48.676;9.034;2024-03-02T13:27:13;1.10;;;0.87;;
944;SDS011;459;48.676;9.034;2024-03-02T13:29:38;0.80;;;0.80;;
944;SDS011;459;48.676;9.034;2024-03-02T13:32:04;1.30;;;0.80;;
944;SDS011;459;48.676;9.034;2024-03-02T13:34:29;0.90;;;0.70;;
944;SDS011;459;48.676;9.034;2024-03-02T13:36:54;0.80;;;0.63;;
944;SDS011;459;48.676;9.034;2024-03-02T13:39:20;1.10;;;0.80;;
944;SDS011;459;48.676;9.034;2024-03-02T13:41:45;1.00;;;0.70;;
944;SDS011;459;48.676;9.034;2024-03-02T13:44:17;0.90;;;0.60;;
944;SDS011;459;48.676;9.034;2024-03-02T13:46:42;1.17;;;0.70;;
944;SDS011;459;48.676;9.034;2024-03-02T13:49:10;0.97;;;0.70;;
944;SDS011;459;48.676;9.034;2024-03-02T13:51:35;0.87;;;0.60;;
944;SDS011;459;48.676;9.034;2024-03-02T13:54:00;1.20;;;0.83;;
944;SDS011;459;48.676;9.034;2024-03-02T13:56:28;0.90;;;0.60;;
944;SDS011;459;48.676;9.034;2024-03-02T13:58:53;1.43;;;0.80;;
944;SDS011;459;48.676;9.034;2024-03-02T14:01:18;1.17;;;0.70;;
944;SDS011;459;48.676;9.034;2024-03-02T14:03:43;1.10;;;0.87;;
944;SDS011;459;48.676;9.034;2024-03-02T14:06:08;4.27;;;1.17;;
944;SDS011;459;48.676;9.034;2024-03-02T14:08:34;1.40;;;0.80;;
944;SDS011;459;48.676;9.034;2024-03-02T14:11:00;2.10;;;0.80;;
944;SDS011;459;48.676;9.034;2024-03-02T14:13:27;1.90;;;0.93;;
944;SDS011;459;48.676;9.034;2024-03-02T14:15:52;1.20;;;0.83;;
944;SDS011;459;48.676;9.034;2024-03-02T14:18:17;1.30;;;1.00;;
944;SDS011;459;48.676;9.034;2024-03-02T14:20:42;0.90;;;0.70;;
944;SDS011;459;48.676;9.034;2024-03-02T14:23:08;1.13;;;0.70;;
944;SDS011;459;48.676;9.034;2024-03-02T14:25:35;0.93;;;0.60;;
944;SDS011;459;48.676;9.034;2024-03-02T14:28:00;1.80;;;1.10;;
944;SDS011;459;48.676;9.034;2024-03-02T14:30:25;1.50;;;1.10;;
944;SDS011;459;48.676;9.034;2024-03-02T14:32:50;1.20;;;0.80;;
944;SDS011;459;48.676;9.034;2024-03-02T14:35:16;1.20;;;1.10;;
944;SDS011;459;48.676;9.034;2024-03-02T14:37:41;1.43;;;1.33;;
944;SDS011;459;48.676;9.034;2024-03-02T14:40:06;2.00;;;1.33;;
944;SDS011;459;48.676;9.034;2024-03-02T14:42:34;3.07;;;1.27;;
944;SDS011;459;48.676;9.034;2024-03-02T14:44:59;2.50;;;1.37;;
944;SDS011;459;48.676;9.034;2024-03-02T14:47:25;1.40;;;1.20;;
944;SDS011;459;48.676;9.034;2024-03-02T14:49:50;1.30;;;0.97;;
944;SDS011;459;48.676;9.034;2024-03-02T14:52:15;1.13;;;0.90;;
944;SDS011;459;48.676;9.034;2024-03-02T14:54:42;1.57;;;1.10;;
944;SDS011;459;48.676;9.034;2024-03-02T14:57:07;1.60;;;1.23;;
944;SDS011;459;48.676;9.034;2024-03-02T14:59:33;1.13;;;0.80;;
944;SDS011;459;48.676;9.034;2024-03-02T15:01:58;1.10;;;0.73;;
944;SDS011;459;48.676;9.034;2024-03-02T15:04:23;1.53;;;1.07;;
944;SDS011;459;48.676;9.034;2024-03-02T15:06:48;1.47;;;1.20;;
944;SDS011;459;48.676;9.034;2024-03-02T15:09:14;1.30;;;1.00;;
944;SDS011;459;48.676;9.034;2024-03-02T15:11:39;1.30;;;1.00;;
944;SDS011;459;48.676;9.034;2024-03-02T15:14:04;1.40;;;1.20;;
944;SDS011;459;48.676;9.034;2024-03-02T15:16:29;1.47;;;1.00;;
944;SDS011;459;48.676;9.034;2024-03-02T15:18:55;1.50;;;1.40;;
944;SDS011;459;48.676;9.034;2024-03-02T15:21:20;1.53;;;1.20;;
944;SDS011;459;48.676;9.034;2024-03-02T15:23:45;2.30;;;1.20;;
944;SDS011;459;48.676;9.034;2024-03-02T15:26:10;1.20;;;1.07;;
944;SDS011;459;48.676;9.034;2024-03-02T15:28:36;1.87;;;1.53;;
944;SDS011;459;48.676;9.034;2024-03-02T15:31:02;1.23;;;1.10;;
944;SDS011;459;48.676;9.034;2024-03-02T15:33:27;1.50;;;0.90;;
944;SDS011;459;48.676;9.034;2024-03-02T15:35:57;1.57;;;1.10;;
944;SDS011;459;48.676;9.034;2024-03-02T15:38:22;1.20;;;1.00;;
944;SDS011;459;48.676;9.034;2024-03-02T15:40:47;1.07;;;0.97;;
944;SDS011;459;48.676;9.034;2024-03-02T15:43:13;1.43;;;1.00;;